sensor_id;sensor_type;location;lat;lon;timestamp;temperature;humidity
9371;DHT22;4725;48.384;8.984;2022-10-16T00:00:37;13.00;99.90
9371;DHT22;4725;48.384;8.984;2022-10-16T00:03:04;13.00;99.90
9371;DHT22;4725;48.384;8.984;2022-10-16T00:05:32;13.00;99.90
9371;DHT22;4725;48.384;8.984;2022-10-16T00:07:59;13.00;99.90
9371;DHT22;4725;48.384;8.984;2022-10-16T00:10:26;13.00;99.90
9371;DHT22;4725;48.384;8.984;2022-10-16T00:12:54;13.00;99.90
9371;DHT22;4725;48.384;8.984;2022-10-16T00:15:21;13.00;99.90
9371;DHT22;4725;48.384;8.984;2022-10-16T00:17:48;12.90;99.90
9371;DHT22;4725;48.384;8.984;2022-10-16T00:20:15;13.00;99.90
9371;DHT22;4725;48.384;8.984;2022-10-16T00:22:42;12.90;99.90
9371;DHT22;4725;48.384;8.984;2022-10-16T00:25:09;13.10;99.90
9371;DHT22;4725;48.384;8.984;2022-10-16T00:27:36;12.90;99.90
9371;DHT22;4725;48.384;8.984;2022-10-16T00:30:06;12.80;99.90
9371;DHT22;4725;48.384;8.984;2022-10-16T00:32:33;12.60;99.90
9371;DHT22;4725;48.384;8.984;2022-10-16T00:35:00;12.60;99.90
9371;DHT22;4725;48.384;8.984;2022-10-16T00:39:56;12.50;99.90
9371;DHT22;4725;48.384;8.984;2022-10-16T00:42:23;12.50;99.90
9371;DHT22;4725;48.384;8.984;2022-10-16T00:44:51;12.50;99.90
9371;DHT22;4725;48.384;8.984;2022-10-16T00:47:24;12.50;99.90
9371;DHT22;4725;48.384;8.984;2022-10-16T00:49:55;12.50;99.90
9371;DHT22;4725;48.384;8.984;2022-10-16T00:52:22;12.60;99.90
9371;DHT22;4725;48.384;8.984;2022-10-16T00:54:50;12.70;99.90
9371;DHT22;4725;48.384;8.984;2022-10-16T00:57:19;12.80;99.90
9371;DHT22;4725;48.384;8.984;2022-10-16T00:59:46;12.80;99.90
9371;DHT22;4725;48.384;8.984;2022-10-16T01:02:14;12.80;99.90
9371;DHT22;4725;48.384;8.984;2022-10-16T01:04:45;12.70;99.90
9371;DHT22;4725;48.384;8.984;2022-10-16T01:07:19;12.80;99.90
9371;DHT22;4725;48.384;8.984;2022-10-16T01:10:01;12.80;99.90
9371;DHT22;4725;48.384;8.984;2022-10-16T01:12:34;12.80;99.90
9371;DHT22;4725;48.384;8.984;2022-10-16T01:15:10;12.90;99.90
9371;DHT22;4725;48.384;8.984;2022-10-16T01:17:43;13.00;99.90
9371;DHT22;4725;48.384;8.984;2022-10-16T01:20:20;13.00;99.90
9371;DHT22;4725;48.384;8.984;2022-10-16T01:22:59;13.00;99.90
9371;DHT22;4725;48.384;8.984;2022-10-16T01:25:44;13.10;99.90
9371;DHT22;4725;48.384;8.984;2022-10-16T01:28:15;13.10;99.90
9371;DHT22;4725;48.384;8.984;2022-10-16T01:30:45;13.10;99.90
9371;DHT22;4725;48.384;8.984;2022-10-16T01:33:17;13.10;99.90
9371;DHT22;4725;48.384;8.984;2022-10-16T01:35:48;13.10;99.90
9371;DHT22;4725;48.384;8.984;2022-10-16T01:38:22;13.20;99.90
9371;DHT22;4725;48.384;8.984;2022-10-16T01:40:52;13.30;99.90
9371;DHT22;4725;48.384;8.984;2022-10-16T01:43:28;13.40;99.90
9371;DHT22;4725;48.384;8.984;2022-10-16T01:45:55;13.50;99.90
9371;DHT22;4725;48.384;8.984;2022-10-16T01:48:24;13.50;99.90
9371;DHT22;4725;48.384;8.984;2022-10-16T01:50:56;13.70;99.90
9371;DHT22;4725;48.384;8.984;2022-10-16T01:53:26;13.70;99.90
9371;DHT22;4725;48.384;8.984;2022-10-16T01:55:55;13.70;99.90
9371;DHT22;4725;48.384;8.984;2022-10-16T01:58:25;13.60;99.90
9371;DHT22;4725;48.384;8.984;2022-10-16T02:00:56;13.60;99.90
9371;DHT22;4725;48.384;8.984;2022-10-16T02:03:23;13.60;99.90
9371;DHT22;4725;48.384;8.984;2022-10-16T02:05:52;13.60;99.90
9371;DHT22;4725;48.384;8.984;2022-10-16T02:08:21;13.70;99.90
9371;DHT22;4725;48.384;8.984;2022-10-16T02:10:49;13.70;99.90
9371;DHT22;4725;48.384;8.984;2022-10-16T02:13:20;13.80;99.90
9371;DHT22;4725;48.384;8.984;2022-10-16T02:15:50;13.80;99.90
9371;DHT22;4725;48.384;8.984;2022-10-16T02:18:17;13.80;99.90
9371;DHT22;4725;48.384;8.984;2022-10-16T02:20:53;13.80;99.90
9371;DHT22;4725;48.384;8.984;2022-10-16T02:23:24;13.80;99.90
9371;DHT22;4725;48.384;8.984;2022-10-16T02:26:04;13.70;99.90
9371;DHT22;4725;48.384;8.984;2022-10-16T02:28:38;13.60;99.90
9371;DHT22;4725;48.384;8.984;2022-10-16T02:31:10;13.50;99.90
9371;DHT22;4725;48.384;8.984;2022-10-16T02:33:39;13.60;99.90
9371;DHT22;4725;48.384;8.984;2022-10-16T02:36:07;13.60;99.90
9371;DHT22;4725;48.384;8.984;2022-10-16T02:38:35;13.70;99.90
9371;DHT22;4725;48.384;8.984;2022-10-16T02:41:04;13.70;99.90
9371;DHT22;4725;48.384;8.984;2022-10-16T02:43:31;13.70;99.90
9371;DHT22;4725;48.384;8.984;2022-10-16T02:45:59;13.80;99.90
9371;DHT22;4725;48.384;8.984;2022-10-16T02:48:27;13.80;99.90
9371;DHT22;4725;48.384;8.984;2022-10-16T02:50:54;13.70;99.90
9371;DHT22;4725;48.384;8.984;2022-10-16T02:53:21;13.70;99.90
9371;DHT22;4725;48.384;8.984;2022-10-16T02:55:48;13.60;99.90
9371;DHT22;4725;48.384;8.984;2022-10-16T02:58:15;13.60;99.90
9371;DHT22;4725;48.384;8.984;2022-10-16T03:00:41;13.60;99.90
9371;DHT22;4725;48.384;8.984;2022-10-16T03:03:08;13.60;99.90
9371;DHT22;4725;48.384;8.984;2022-10-16T03:05:37;13.60;99.90
9371;DHT22;4725;48.384;8.984;2022-10-16T03:08:04;13.60;99.90
9371;DHT22;4725;48.384;8.984;2022-10-16T03:10:31;13.50;99.90
9371;DHT22;4725;48.384;8.984;2022-10-16T03:12:58;13.50;99.90
9371;DHT22;4725;48.384;8.984;2022-10-16T03:15:25;13.40;99.90
9371;DHT22;4725;48.384;8.984;2022-10-16T03:17:53;13.30;99.90
9371;DHT22;4725;48.384;8.984;2022-10-16T03:20:20;13.10;99.90
9371;DHT22;4725;48.384;8.984;2022-10-16T03:22:49;13.20;99.90
9371;DHT22;4725;48.384;8.984;2022-10-16T03:25:16;13.10;99.90
9371;DHT22;4725;48.384;8.984;2022-10-16T03:27:42;13.00;99.90
9371;DHT22;4725;48.384;8.984;2022-10-16T03:30:10;13.00;99.90
9371;DHT22;4725;48.384;8.984;2022-10-16T03:32:37;13.00;99.90
9371;DHT22;4725;48.384;8.984;2022-10-16T03:35:05;13.00;99.90
9371;DHT22;4725;48.384;8.984;2022-10-16T03:37:32;13.00;99.90
9371;DHT22;4725;48.384;8.984;2022-10-16T03:40:00;13.10;99.90
9371;DHT22;4725;48.384;8.984;2022-10-16T03:42:27;13.10;99.90
9371;DHT22;4725;48.384;8.984;2022-10-16T03:44:54;13.20;99.90
9371;DHT22;4725;48.384;8.984;2022-10-16T03:47:21;13.20;99.90
9371;DHT22;4725;48.384;8.984;2022-10-16T03:49:49;13.20;99.90
9371;DHT22;4725;48.384;8.984;2022-10-16T03:52:16;13.20;99.90
9371;DHT22;4725;48.384;8.984;2022-10-16T03:54:43;13.20;99.90
9371;DHT22;4725;48.384;8.984;2022-10-16T03:57:11;13.30;99.90
9371;DHT22;4725;48.384;8.984;2022-10-16T03:59:38;13.30;99.90
9371;DHT22;4725;48.384;8.984;2022-10-16T04:02:05;13.20;99.90
9371;DHT22;4725;48.384;8.984;2022-10-16T04:04:32;13.10;99.90
9371;DHT22;4725;48.384;8.984;2022-10-16T04:06:59;13.10;99.90
9371;DHT22;4725;48.384;8.984;2022-10-16T04:09:26;13.00;99.90
9371;DHT22;4725;48.384;8.984;2022-10-16T04:11:53;12.90;99.90
9371;DHT22;4725;48.384;8.984;2022-10-16T04:14:21;13.00;99.90
9371;DHT22;4725;48.384;8.984;2022-10-16T04:16:48;13.00;99.90
9371;DHT22;4725;48.384;8.984;2022-10-16T04:19:15;13.00;99.90
9371;DHT22;4725;48.384;8.984;2022-10-16T04:21:42;13.10;99.90
9371;DHT22;4725;48.384;8.984;2022-10-16T04:24:09;13.10;99.90
9371;DHT22;4725;48.384;8.984;2022-10-16T04:26:37;13.10;99.90
9371;DHT22;4725;48.384;8.984;2022-10-16T04:29:04;13.10;99.90
9371;DHT22;4725;48.384;8.984;2022-10-16T04:31:33;16.10;99.90
9371;DHT22;4725;48.384;8.984;2022-10-16T04:34:00;13.00;99.90
9371;DHT22;4725;48.384;8.984;2022-10-16T04:36:27;13.00;99.90
9371;DHT22;4725;48.384;8.984;2022-10-16T04:38:54;13.00;99.90
9371;DHT22;4725;48.384;8.984;2022-10-16T04:41:21;13.00;99.90
9371;DHT22;4725;48.384;8.984;2022-10-16T04:43:48;13.00;99.90
9371;DHT22;4725;48.384;8.984;2022-10-16T04:46:15;13.00;99.90
9371;DHT22;4725;48.384;8.984;2022-10-16T04:48:43;13.10;99.90
9371;DHT22;4725;48.384;8.984;2022-10-16T04:51:12;13.10;99.90
9371;DHT22;4725;48.384;8.984;2022-10-16T04:53:39;13.10;99.90
9371;DHT22;4725;48.384;8.984;2022-10-16T04:56:06;13.10;99.90
9371;DHT22;4725;48.384;8.984;2022-10-16T04:58:33;13.10;99.90
9371;DHT22;4725;48.384;8.984;2022-10-16T05:01:00;13.10;99.90
9371;DHT22;4725;48.384;8.984;2022-10-16T05:03:27;13.10;99.90
9371;DHT22;4725;48.384;8.984;2022-10-16T05:05:55;13.30;99.90
9371;DHT22;4725;48.384;8.984;2022-10-16T05:08:23;13.30;99.90
9371;DHT22;4725;48.384;8.984;2022-10-16T05:13:17;13.40;99.90
9371;DHT22;4725;48.384;8.984;2022-10-16T05:15:47;13.40;99.90
9371;DHT22;4725;48.384;8.984;2022-10-16T05:18:14;13.40;99.90
9371;DHT22;4725;48.384;8.984;2022-10-16T05:20:42;13.30;99.90
9371;DHT22;4725;48.384;8.984;2022-10-16T05:23:10;13.20;99.90
9371;DHT22;4725;48.384;8.984;2022-10-16T05:25:37;13.20;99.90
9371;DHT22;4725;48.384;8.984;2022-10-16T05:28:04;13.20;99.90
9371;DHT22;4725;48.384;8.984;2022-10-16T05:30:31;13.20;99.90
9371;DHT22;4725;48.384;8.984;2022-10-16T05:32:58;13.20;99.90
9371;DHT22;4725;48.384;8.984;2022-10-16T05:35:25;13.20;99.90
9371;DHT22;4725;48.384;8.984;2022-10-16T05:37:52;13.20;99.90
9371;DHT22;4725;48.384;8.984;2022-10-16T05:40:21;13.20;99.90
9371;DHT22;4725;48.384;8.984;2022-10-16T05:42:48;13.20;99.90
9371;DHT22;4725;48.384;8.984;2022-10-16T05:45:15;13.20;99.90
9371;DHT22;4725;48.384;8.984;2022-10-16T05:47:42;13.20;99.90
9371;DHT22;4725;48.384;8.984;2022-10-16T05:50:09;13.10;99.90
9371;DHT22;4725;48.384;8.984;2022-10-16T05:52:36;13.10;99.90
9371;DHT22;4725;48.384;8.984;2022-10-16T05:55:03;13.20;99.90
9371;DHT22;4725;48.384;8.984;2022-10-16T05:57:32;13.30;99.90
9371;DHT22;4725;48.384;8.984;2022-10-16T05:59:59;13.20;99.90
9371;DHT22;4725;48.384;8.984;2022-10-16T06:02:26;13.20;99.90
9371;DHT22;4725;48.384;8.984;2022-10-16T06:04:53;13.20;99.90
9371;DHT22;4725;48.384;8.984;2022-10-16T06:07:20;13.30;99.90
9371;DHT22;4725;48.384;8.984;2022-10-16T06:09:48;13.30;99.90
9371;DHT22;4725;48.384;8.984;2022-10-16T06:12:15;13.40;99.90
9371;DHT22;4725;48.384;8.984;2022-10-16T06:14:44;13.40;99.90
9371;DHT22;4725;48.384;8.984;2022-10-16T06:17:12;13.50;99.90
9371;DHT22;4725;48.384;8.984;2022-10-16T06:19:39;13.60;99.90
9371;DHT22;4725;48.384;8.984;2022-10-16T06:22:06;13.80;99.90
9371;DHT22;4725;48.384;8.984;2022-10-16T06:24:33;13.90;99.90
9371;DHT22;4725;48.384;8.984;2022-10-16T06:27:00;14.00;99.90
9371;DHT22;4725;48.384;8.984;2022-10-16T06:29:27;14.10;99.90
9371;DHT22;4725;48.384;8.984;2022-10-16T06:31:55;14.20;99.90
9371;DHT22;4725;48.384;8.984;2022-10-16T06:34:23;14.20;99.90
9371;DHT22;4725;48.384;8.984;2022-10-16T06:39:17;14.60;99.90
9371;DHT22;4725;48.384;8.984;2022-10-16T06:41:44;14.70;99.90
9371;DHT22;4725;48.384;8.984;2022-10-16T06:44:10;14.70;99.90
9371;DHT22;4725;48.384;8.984;2022-10-16T06:46:38;14.80;99.90
9371;DHT22;4725;48.384;8.984;2022-10-16T06:49:06;14.90;99.90
9371;DHT22;4725;48.384;8.984;2022-10-16T06:51:33;15.00;99.90
9371;DHT22;4725;48.384;8.984;2022-10-16T06:54:02;15.10;99.90
9371;DHT22;4725;48.384;8.984;2022-10-16T06:56:30;15.10;99.90
9371;DHT22;4725;48.384;8.984;2022-10-16T06:58:57;15.10;99.90
9371;DHT22;4725;48.384;8.984;2022-10-16T07:01:25;15.10;99.90
9371;DHT22;4725;48.384;8.984;2022-10-16T07:03:53;15.20;99.90
9371;DHT22;4725;48.384;8.984;2022-10-16T07:06:24;15.20;99.90
9371;DHT22;4725;48.384;8.984;2022-10-16T07:08:52;15.20;99.90
9371;DHT22;4725;48.384;8.984;2022-10-16T07:11:20;15.30;99.90
9371;DHT22;4725;48.384;8.984;2022-10-16T07:13:48;15.30;99.90
9371;DHT22;4725;48.384;8.984;2022-10-16T07:16:17;15.40;99.90
9371;DHT22;4725;48.384;8.984;2022-10-16T07:18:44;15.40;99.90
9371;DHT22;4725;48.384;8.984;2022-10-16T07:21:14;15.50;99.90
9371;DHT22;4725;48.384;8.984;2022-10-16T07:23:42;15.50;99.90
9371;DHT22;4725;48.384;8.984;2022-10-16T07:26:10;15.50;99.90
9371;DHT22;4725;48.384;8.984;2022-10-16T07:28:37;15.50;99.90
9371;DHT22;4725;48.384;8.984;2022-10-16T07:31:07;15.50;99.90
9371;DHT22;4725;48.384;8.984;2022-10-16T07:33:36;15.40;99.90
9371;DHT22;4725;48.384;8.984;2022-10-16T07:36:04;15.60;99.90
9371;DHT22;4725;48.384;8.984;2022-10-16T07:38:32;15.60;99.90
9371;DHT22;4725;48.384;8.984;2022-10-16T07:41:01;15.80;99.90
9371;DHT22;4725;48.384;8.984;2022-10-16T07:43:29;15.80;99.90
9371;DHT22;4725;48.384;8.984;2022-10-16T07:45:56;15.90;99.90
9371;DHT22;4725;48.384;8.984;2022-10-16T07:48:26;16.00;99.90
9371;DHT22;4725;48.384;8.984;2022-10-16T07:50:57;16.10;99.90
9371;DHT22;4725;48.384;8.984;2022-10-16T07:53:25;16.20;99.90
9371;DHT22;4725;48.384;8.984;2022-10-16T07:55:52;16.20;99.90
9371;DHT22;4725;48.384;8.984;2022-10-16T07:58:20;16.30;99.90
9371;DHT22;4725;48.384;8.984;2022-10-16T08:00:47;19.00;99.90
9371;DHT22;4725;48.384;8.984;2022-10-16T08:03:14;16.60;99.90
9371;DHT22;4725;48.384;8.984;2022-10-16T08:05:41;16.70;99.90
9371;DHT22;4725;48.384;8.984;2022-10-16T08:08:12;16.90;99.90
9371;DHT22;4725;48.384;8.984;2022-10-16T08:10:40;16.90;99.90
9371;DHT22;4725;48.384;8.984;2022-10-16T08:13:07;16.90;99.90
9371;DHT22;4725;48.384;8.984;2022-10-16T08:15:35;17.00;99.90
9371;DHT22;4725;48.384;8.984;2022-10-16T08:18:04;17.00;99.90
9371;DHT22;4725;48.384;8.984;2022-10-16T08:20:32;17.10;99.90
9371;DHT22;4725;48.384;8.984;2022-10-16T08:23:00;17.30;99.90
9371;DHT22;4725;48.384;8.984;2022-10-16T08:25:28;17.30;99.90
9371;DHT22;4725;48.384;8.984;2022-10-16T08:27:55;17.50;99.90
9371;DHT22;4725;48.384;8.984;2022-10-16T08:30:23;17.60;99.90
9371;DHT22;4725;48.384;8.984;2022-10-16T08:32:52;17.70;99.90
9371;DHT22;4725;48.384;8.984;2022-10-16T08:35:19;17.70;99.90
9371;DHT22;4725;48.384;8.984;2022-10-16T08:37:46;17.90;99.90
9371;DHT22;4725;48.384;8.984;2022-10-16T08:40:18;17.90;99.90
9371;DHT22;4725;48.384;8.984;2022-10-16T08:43:17;18.00;99.90
9371;DHT22;4725;48.384;8.984;2022-10-16T08:46:15;18.20;99.90
9371;DHT22;4725;48.384;8.984;2022-10-16T08:48:50;18.40;99.90
9371;DHT22;4725;48.384;8.984;2022-10-16T08:51:20;18.50;99.90
9371;DHT22;4725;48.384;8.984;2022-10-16T08:53:53;18.60;99.90
9371;DHT22;4725;48.384;8.984;2022-10-16T08:56:21;18.70;99.90
9371;DHT22;4725;48.384;8.984;2022-10-16T08:58:48;18.90;99.90
9371;DHT22;4725;48.384;8.984;2022-10-16T09:01:19;19.00;99.90
9371;DHT22;4725;48.384;8.984;2022-10-16T09:06:53;19.10;99.90
9371;DHT22;4725;48.384;8.984;2022-10-16T09:09:50;19.30;99.90
9371;DHT22;4725;48.384;8.984;2022-10-16T09:12:25;19.40;99.90
9371;DHT22;4725;48.384;8.984;2022-10-16T09:15:01;19.60;99.90
9371;DHT22;4725;48.384;8.984;2022-10-16T09:17:39;19.70;99.90
9371;DHT22;4725;48.384;8.984;2022-10-16T09:20:19;21.90;99.90
9371;DHT22;4725;48.384;8.984;2022-10-16T09:22:48;19.80;99.90
9371;DHT22;4725;48.384;8.984;2022-10-16T09:25:18;20.00;99.90
9371;DHT22;4725;48.384;8.984;2022-10-16T09:27:48;20.00;99.90
9371;DHT22;4725;48.384;8.984;2022-10-16T09:30:19;20.00;99.90
9371;DHT22;4725;48.384;8.984;2022-10-16T09:32:49;20.00;99.90
9371;DHT22;4725;48.384;8.984;2022-10-16T09:35:19;20.10;99.90
9371;DHT22;4725;48.384;8.984;2022-10-16T09:37:50;19.90;99.90
9371;DHT22;4725;48.384;8.984;2022-10-16T09:40:26;20.00;99.90
9371;DHT22;4725;48.384;8.984;2022-10-16T09:42:58;20.00;99.90
9371;DHT22;4725;48.384;8.984;2022-10-16T09:45:28;20.00;99.90
9371;DHT22;4725;48.384;8.984;2022-10-16T09:47:55;19.90;99.90
9371;DHT22;4725;48.384;8.984;2022-10-16T09:50:24;20.00;99.90
9371;DHT22;4725;48.384;8.984;2022-10-16T09:53:04;19.90;99.90
9371;DHT22;4725;48.384;8.984;2022-10-16T09:55:31;19.30;99.90
9371;DHT22;4725;48.384;8.984;2022-10-16T09:57:58;19.90;99.90
9371;DHT22;4725;48.384;8.984;2022-10-16T10:00:25;19.80;99.90
9371;DHT22;4725;48.384;8.984;2022-10-16T10:02:54;19.70;99.90
9371;DHT22;4725;48.384;8.984;2022-10-16T10:05:22;19.70;99.90
9371;DHT22;4725;48.384;8.984;2022-10-16T10:07:55;20.00;99.90
9371;DHT22;4725;48.384;8.984;2022-10-16T10:10:26;20.00;99.90
9371;DHT22;4725;48.384;8.984;2022-10-16T10:12:54;20.00;99.90
9371;DHT22;4725;48.384;8.984;2022-10-16T10:15:23;20.00;99.90
9371;DHT22;4725;48.384;8.984;2022-10-16T10:17:53;20.00;99.90
9371;DHT22;4725;48.384;8.984;2022-10-16T10:20:26;19.90;99.90
9371;DHT22;4725;48.384;8.984;2022-10-16T10:22:54;19.90;99.90
9371;DHT22;4725;48.384;8.984;2022-10-16T10:25:43;19.90;99.90
9371;DHT22;4725;48.384;8.984;2022-10-16T10:28:47;19.90;99.90
9371;DHT22;4725;48.384;8.984;2022-10-16T10:31:22;19.90;99.90
9371;DHT22;4725;48.384;8.984;2022-10-16T10:33:54;20.10;99.90
9371;DHT22;4725;48.384;8.984;2022-10-16T10:36:30;20.50;99.90
9371;DHT22;4725;48.384;8.984;2022-10-16T10:39:00;21.10;99.90
9371;DHT22;4725;48.384;8.984;2022-10-16T10:42:06;21.90;99.90
9371;DHT22;4725;48.384;8.984;2022-10-16T10:44:54;22.40;99.90
9371;DHT22;4725;48.384;8.984;2022-10-16T10:47:41;22.80;99.90
9371;DHT22;4725;48.384;8.984;2022-10-16T10:50:17;22.90;99.90
9371;DHT22;4725;48.384;8.984;2022-10-16T10:52:57;23.20;99.90
9371;DHT22;4725;48.384;8.984;2022-10-16T10:55:33;23.50;99.90
9371;DHT22;4725;48.384;8.984;2022-10-16T11:01:08;24.10;99.90
9371;DHT22;4725;48.384;8.984;2022-10-16T11:03:46;24.20;99.90
9371;DHT22;4725;48.384;8.984;2022-10-16T11:06:22;24.40;99.90
9371;DHT22;4725;48.384;8.984;2022-10-16T11:08:53;24.50;99.90
9371;DHT22;4725;48.384;8.984;2022-10-16T11:11:25;24.60;99.90
9371;DHT22;4725;48.384;8.984;2022-10-16T11:14:00;24.50;99.90
9371;DHT22;4725;48.384;8.984;2022-10-16T11:16:31;24.80;99.90
9371;DHT22;4725;48.384;8.984;2022-10-16T11:19:03;25.10;99.90
9371;DHT22;4725;48.384;8.984;2022-10-16T11:21:42;24.90;99.90
9371;DHT22;4725;48.384;8.984;2022-10-16T11:24:18;25.30;99.90
9371;DHT22;4725;48.384;8.984;2022-10-16T11:26:48;25.50;99.90
9371;DHT22;4725;48.384;8.984;2022-10-16T11:29:22;25.60;99.90
9371;DHT22;4725;48.384;8.984;2022-10-16T11:31:53;25.00;99.90
9371;DHT22;4725;48.384;8.984;2022-10-16T11:34:25;25.30;99.90
9371;DHT22;4725;48.384;8.984;2022-10-16T11:37:01;25.90;99.90
9371;DHT22;4725;48.384;8.984;2022-10-16T11:39:30;26.00;99.90
9371;DHT22;4725;48.384;8.984;2022-10-16T11:42:02;25.80;99.90
9371;DHT22;4725;48.384;8.984;2022-10-16T11:44:43;25.80;99.90
9371;DHT22;4725;48.384;8.984;2022-10-16T11:47:25;25.90;99.90
9371;DHT22;4725;48.384;8.984;2022-10-16T11:49:57;26.50;99.90
9371;DHT22;4725;48.384;8.984;2022-10-16T11:52:30;27.50;99.90
9371;DHT22;4725;48.384;8.984;2022-10-16T11:55:05;26.60;99.90
9371;DHT22;4725;48.384;8.984;2022-10-16T11:57:40;26.40;99.90
9371;DHT22;4725;48.384;8.984;2022-10-16T12:00:20;26.50;99.30
9371;DHT22;4725;48.384;8.984;2022-10-16T12:02:58;26.40;99.20
9371;DHT22;4725;48.384;8.984;2022-10-16T12:05:35;25.90;99.90
9371;DHT22;4725;48.384;8.984;2022-10-16T12:08:10;25.40;99.90
9371;DHT22;4725;48.384;8.984;2022-10-16T12:10:40;24.80;99.90
9371;DHT22;4725;48.384;8.984;2022-10-16T12:13:29;24.80;99.90
9371;DHT22;4725;48.384;8.984;2022-10-16T12:16:07;24.90;99.90
9371;DHT22;4725;48.384;8.984;2022-10-16T12:18:46;24.20;99.90
9371;DHT22;4725;48.384;8.984;2022-10-16T12:21:15;24.50;99.90
9371;DHT22;4725;48.384;8.984;2022-10-16T12:23:48;24.70;99.90
9371;DHT22;4725;48.384;8.984;2022-10-16T12:26:25;25.30;99.90
9371;DHT22;4725;48.384;8.984;2022-10-16T12:28:52;25.30;99.90
9371;DHT22;4725;48.384;8.984;2022-10-16T12:31:21;26.10;99.90
9371;DHT22;4725;48.384;8.984;2022-10-16T12:33:57;25.80;99.90
9371;DHT22;4725;48.384;8.984;2022-10-16T12:36:29;25.80;99.90
9371;DHT22;4725;48.384;8.984;2022-10-16T12:38:58;25.80;99.90
9371;DHT22;4725;48.384;8.984;2022-10-16T12:41:26;25.50;99.90
9371;DHT22;4725;48.384;8.984;2022-10-16T12:43:54;25.20;99.90
9371;DHT22;4725;48.384;8.984;2022-10-16T12:46:33;24.50;99.90
9371;DHT22;4725;48.384;8.984;2022-10-16T12:49:17;24.00;99.90
9371;DHT22;4725;48.384;8.984;2022-10-16T12:51:46;23.40;99.90
9371;DHT22;4725;48.384;8.984;2022-10-16T12:54:16;23.30;99.90
9371;DHT22;4725;48.384;8.984;2022-10-16T12:56:51;23.30;99.90
9371;DHT22;4725;48.384;8.984;2022-10-16T12:59:31;23.50;99.90
9371;DHT22;4725;48.384;8.984;2022-10-16T13:05:22;23.70;99.90
9371;DHT22;4725;48.384;8.984;2022-10-16T13:08:00;23.60;99.90
9371;DHT22;4725;48.384;8.984;2022-10-16T13:10:36;23.30;99.90
9371;DHT22;4725;48.384;8.984;2022-10-16T13:13:38;23.40;99.90
9371;DHT22;4725;48.384;8.984;2022-10-16T13:16:17;23.40;99.90
9371;DHT22;4725;48.384;8.984;2022-10-16T13:18:56;23.20;99.90
9371;DHT22;4725;48.384;8.984;2022-10-16T13:21:42;23.20;99.90
9371;DHT22;4725;48.384;8.984;2022-10-16T13:24:27;23.30;99.90
9371;DHT22;4725;48.384;8.984;2022-10-16T13:27:05;23.30;99.90
9371;DHT22;4725;48.384;8.984;2022-10-16T13:29:34;23.80;99.90
9371;DHT22;4725;48.384;8.984;2022-10-16T13:32:07;24.00;99.90
9371;DHT22;4725;48.384;8.984;2022-10-16T13:34:44;23.80;99.90
9371;DHT22;4725;48.384;8.984;2022-10-16T13:37:17;23.90;99.90
9371;DHT22;4725;48.384;8.984;2022-10-16T13:39:45;24.00;99.90
9371;DHT22;4725;48.384;8.984;2022-10-16T13:42:18;24.20;99.90
9371;DHT22;4725;48.384;8.984;2022-10-16T13:44:51;24.20;99.90
9371;DHT22;4725;48.384;8.984;2022-10-16T13:47:19;24.20;99.90
9371;DHT22;4725;48.384;8.984;2022-10-16T13:49:59;24.20;99.90
9371;DHT22;4725;48.384;8.984;2022-10-16T13:52:26;24.40;99.90
9371;DHT22;4725;48.384;8.984;2022-10-16T13:54:53;24.20;99.90
9371;DHT22;4725;48.384;8.984;2022-10-16T13:57:22;24.30;99.90
9371;DHT22;4725;48.384;8.984;2022-10-16T13:59:50;24.40;99.90
9371;DHT22;4725;48.384;8.984;2022-10-16T14:02:21;24.40;99.90
9371;DHT22;4725;48.384;8.984;2022-10-16T14:04:50;24.60;99.90
9371;DHT22;4725;48.384;8.984;2022-10-16T14:07:21;24.20;99.90
9371;DHT22;4725;48.384;8.984;2022-10-16T14:09:50;24.10;99.90
9371;DHT22;4725;48.384;8.984;2022-10-16T14:12:18;23.70;99.90
9371;DHT22;4725;48.384;8.984;2022-10-16T14:14:46;23.70;99.90
9371;DHT22;4725;48.384;8.984;2022-10-16T14:17:14;23.50;99.90
9371;DHT22;4725;48.384;8.984;2022-10-16T14:19:46;23.20;99.90
9371;DHT22;4725;48.384;8.984;2022-10-16T14:22:28;22.90;99.90
9371;DHT22;4725;48.384;8.984;2022-10-16T14:24:56;22.80;99.90
9371;DHT22;4725;48.384;8.984;2022-10-16T14:27:29;22.70;99.90
9371;DHT22;4725;48.384;8.984;2022-10-16T14:30:13;22.50;99.90
9371;DHT22;4725;48.384;8.984;2022-10-16T14:32:40;22.80;99.90
9371;DHT22;4725;48.384;8.984;2022-10-16T14:35:23;23.00;99.90
9371;DHT22;4725;48.384;8.984;2022-10-16T14:37:53;23.90;99.90
9371;DHT22;4725;48.384;8.984;2022-10-16T14:40:23;23.90;99.90
9371;DHT22;4725;48.384;8.984;2022-10-16T14:42:50;24.40;99.90
9371;DHT22;4725;48.384;8.984;2022-10-16T14:45:20;24.90;99.90
9371;DHT22;4725;48.384;8.984;2022-10-16T14:47:49;24.80;99.90
9371;DHT22;4725;48.384;8.984;2022-10-16T14:50:17;24.60;99.90
9371;DHT22;4725;48.384;8.984;2022-10-16T14:52:44;24.10;99.90
9371;DHT22;4725;48.384;8.984;2022-10-16T14:55:12;23.70;99.90
9371;DHT22;4725;48.384;8.984;2022-10-16T14:57:39;23.30;99.90
9371;DHT22;4725;48.384;8.984;2022-10-16T15:00:16;22.90;99.90
9371;DHT22;4725;48.384;8.984;2022-10-16T15:02:44;22.30;99.90
9371;DHT22;4725;48.384;8.984;2022-10-16T15:05:14;22.30;99.90
9371;DHT22;4725;48.384;8.984;2022-10-16T15:07:41;22.20;99.90
9371;DHT22;4725;48.384;8.984;2022-10-16T15:10:08;22.10;99.90
9371;DHT22;4725;48.384;8.984;2022-10-16T15:12:37;22.20;99.90
9371;DHT22;4725;48.384;8.984;2022-10-16T15:15:21;22.30;99.90
9371;DHT22;4725;48.384;8.984;2022-10-16T15:17:50;22.20;99.90
9371;DHT22;4725;48.384;8.984;2022-10-16T15:20:19;22.00;99.90
9371;DHT22;4725;48.384;8.984;2022-10-16T15:22:46;21.90;99.90
9371;DHT22;4725;48.384;8.984;2022-10-16T15:25:32;21.80;99.90
9371;DHT22;4725;48.384;8.984;2022-10-16T15:28:02;21.70;99.90
9371;DHT22;4725;48.384;8.984;2022-10-16T15:30:29;21.70;99.90
9371;DHT22;4725;48.384;8.984;2022-10-16T15:32:56;21.50;99.90
9371;DHT22;4725;48.384;8.984;2022-10-16T15:35:23;21.50;99.90
9371;DHT22;4725;48.384;8.984;2022-10-16T15:37:50;19.60;99.90
9371;DHT22;4725;48.384;8.984;2022-10-16T15:40:19;21.30;99.90
9371;DHT22;4725;48.384;8.984;2022-10-16T15:42:46;21.20;99.90
9371;DHT22;4725;48.384;8.984;2022-10-16T15:45:15;21.10;99.90
9371;DHT22;4725;48.384;8.984;2022-10-16T15:47:43;20.90;99.90
9371;DHT22;4725;48.384;8.984;2022-10-16T15:50:10;20.80;99.90
9371;DHT22;4725;48.384;8.984;2022-10-16T15:52:38;20.70;99.90
9371;DHT22;4725;48.384;8.984;2022-10-16T15:57:33;20.40;99.90
9371;DHT22;4725;48.384;8.984;2022-10-16T16:00:00;20.20;99.90
9371;DHT22;4725;48.384;8.984;2022-10-16T16:02:29;20.00;99.90
9371;DHT22;4725;48.384;8.984;2022-10-16T16:04:56;19.90;99.90
9371;DHT22;4725;48.384;8.984;2022-10-16T16:07:22;19.70;99.90
9371;DHT22;4725;48.384;8.984;2022-10-16T16:09:49;19.50;99.90
9371;DHT22;4725;48.384;8.984;2022-10-16T16:12:16;19.30;99.90
9371;DHT22;4725;48.384;8.984;2022-10-16T16:14:43;19.20;99.90
9371;DHT22;4725;48.384;8.984;2022-10-16T16:17:11;19.10;99.90
9371;DHT22;4725;48.384;8.984;2022-10-16T16:19:40;18.90;99.90
9371;DHT22;4725;48.384;8.984;2022-10-16T16:22:07;18.70;99.90
9371;DHT22;4725;48.384;8.984;2022-10-16T16:24:34;18.60;99.90
9371;DHT22;4725;48.384;8.984;2022-10-16T16:27:01;18.40;99.90
9371;DHT22;4725;48.384;8.984;2022-10-16T16:29:28;18.20;99.90
9371;DHT22;4725;48.384;8.984;2022-10-16T16:31:55;18.00;99.90
9371;DHT22;4725;48.384;8.984;2022-10-16T16:34:24;17.90;99.90
9371;DHT22;4725;48.384;8.984;2022-10-16T16:36:53;17.80;99.90
9371;DHT22;4725;48.384;8.984;2022-10-16T16:39:21;17.80;99.90
9371;DHT22;4725;48.384;8.984;2022-10-16T16:41:49;17.60;99.90